createdAt,value
2022-11-03T00:04:09.446Z,101072.94
2022-11-03T00:10:11.359Z,101088.41
2022-11-03T00:16:13.376Z,101082.97
2022-11-03T00:22:16.955Z,101095.56
2022-11-03T00:28:19.094Z,101094.59
2022-11-03T00:34:21.060Z,101095.72
2022-11-03T00:40:22.986Z,101111.81
2022-11-03T00:46:27.054Z,101116.66
2022-11-03T00:52:30.006Z,101109.63
2022-11-03T00:58:32.538Z,101117.94
2022-11-03T01:04:52.960Z,101115.56
2022-11-03T01:11:13.765Z,101110.72
2022-11-03T01:17:19.713Z,101125.28
2022-11-03T01:23:23.072Z,101129.41
2022-11-03T01:29:25.241Z,101116.72
2022-11-03T01:35:27.280Z,101126.78
2022-11-03T01:41:29.267Z,101120.00
2022-11-03T01:47:34.417Z,101122.03
2022-11-03T01:53:41.589Z,101123.94
2022-11-03T01:59:45.216Z,101124.72
2022-11-03T02:05:51.568Z,101129.09
2022-11-03T02:12:07.759Z,101139.91
2022-11-03T02:18:12.709Z,101133.50
2022-11-03T02:24:18.760Z,101147.28
2022-11-03T02:30:20.831Z,101152.44
2022-11-03T02:36:33.768Z,101145.41
2022-11-03T02:42:39.670Z,101161.94
2022-11-03T02:48:42.142Z,101174.19
2022-11-03T02:54:46.579Z,101172.16
2022-11-03T03:00:57.899Z,101177.34
2022-11-03T03:07:07.658Z,101173.72
2022-11-03T03:13:14.900Z,101168.06
2022-11-03T03:19:34.149Z,101179.13
2022-11-03T03:25:45.784Z,101190.41
2022-11-03T03:31:56.091Z,101191.88
2022-11-03T03:38:09.519Z,101193.09
2022-11-03T03:44:13.086Z,101191.09
2022-11-03T03:50:15.257Z,101202.28
2022-11-03T03:56:21.569Z,101215.25
2022-11-03T04:02:23.755Z,101220.47
2022-11-03T04:08:26.509Z,101208.69
2022-11-03T04:14:48.598Z,101225.28
2022-11-03T04:21:10.443Z,101219.56
2022-11-03T04:27:36.714Z,101231.78
2022-11-03T04:33:40.085Z,101211.81
2022-11-03T04:45:46.817Z,101221.50
2022-11-03T04:51:50.462Z,101227.38
2022-11-03T04:58:03.040Z,101224.56
2022-11-03T05:04:13.125Z,101236.06
2022-11-03T05:10:21.014Z,101244.50
2022-11-03T05:16:25.096Z,101253.97
